createdAt,value
2022-10-04T00:02:17.913Z,101220.00
2022-10-04T00:05:01.286Z,101220.00
2022-10-04T00:07:42.828Z,101203.00
2022-10-04T00:10:23.334Z,101205.00
2022-10-04T00:13:01.813Z,101204.00
2022-10-04T00:15:39.239Z,101202.00
2022-10-04T00:18:29.300Z,101187.00
2022-10-04T00:21:09.950Z,101194.00
2022-10-04T00:23:47.721Z,101195.00
2022-10-04T00:27:05.410Z,101201.00
2022-10-04T00:29:43.518Z,101196.00
2022-10-04T00:32:31.552Z,101185.00
2022-10-04T00:35:44.078Z,101167.00
2022-10-04T00:38:27.017Z,101183.00
2022-10-04T00:41:08.904Z,101157.00
2022-10-04T00:43:49.573Z,101179.00
2022-10-04T00:46:28.363Z,101151.00
2022-10-04T00:49:07.790Z,101177.00
2022-10-04T00:51:46.185Z,101174.00
2022-10-04T00:54:23.668Z,101164.00
2022-10-04T00:57:00.825Z,101158.00
2022-10-04T00:59:41.862Z,101171.00
2022-10-04T01:02:22.517Z,101117.00
2022-10-04T01:05:01.900Z,101184.00
2022-10-04T01:07:42.259Z,101178.00
2022-10-04T01:10:23.064Z,101182.00
2022-10-04T01:13:05.890Z,101178.00
2022-10-04T01:15:46.464Z,101169.00
2022-10-04T01:18:34.352Z,101171.00
2022-10-04T01:21:23.346Z,101167.00
2022-10-04T01:24:22.776Z,101142.00
2022-10-04T01:26:58.369Z,101148.00
2022-10-04T01:29:33.533Z,101146.00
2022-10-04T01:32:07.191Z,101163.00
2022-10-04T01:34:42.513Z,101152.00
2022-10-04T01:37:16.311Z,101139.00
2022-10-04T01:39:52.406Z,101143.00
2022-10-04T01:42:33.659Z,101129.00
2022-10-04T01:45:16.537Z,101117.00
2022-10-04T01:47:57.482Z,101136.00
2022-10-04T01:50:39.096Z,101129.00
2022-10-04T01:53:20.818Z,101127.00
2022-10-04T01:56:04.658Z,101115.00
2022-10-04T01:58:46.680Z,101120.00
2022-10-04T02:01:27.882Z,101117.00
2022-10-04T02:04:06.830Z,101123.00
2022-10-04T02:06:44.404Z,101110.00
2022-10-04T02:09:35.020Z,101106.00
2022-10-04T02:12:10.406Z,101112.00
2022-10-04T02:14:52.765Z,101087.00
2022-10-04T02:17:30.654Z,101109.00
2022-10-04T02:20:13.211Z,101103.00
2022-10-04T02:22:50.901Z,101079.00
2022-10-04T02:25:26.852Z,101100.00
2022-10-04T02:28:02.117Z,101095.00
2022-10-04T02:30:40.231Z,101074.00
2022-10-04T02:33:12.875Z,101077.00
2022-10-04T02:35:49.650Z,101076.00
2022-10-04T02:38:30.423Z,101077.00
2022-10-04T02:41:35.733Z,101072.00
2022-10-04T02:44:19.263Z,101053.00
2022-10-04T02:46:59.416Z,101063.00
2022-10-04T02:49:38.672Z,101067.00
2022-10-04T02:52:20.004Z,101071.00
2022-10-04T02:55:02.567Z,101064.00
2022-10-04T02:57:37.283Z,101055.00
2022-10-04T03:00:21.301Z,101058.00
2022-10-04T03:03:20.543Z,101054.00
2022-10-04T03:06:05.793Z,101071.00
2022-10-04T03:08:49.257Z,101059.00
2022-10-04T03:11:28.821Z,101054.00
2022-10-04T03:14:07.683Z,101049.00
2022-10-04T03:16:46.530Z,101059.00
2022-10-04T03:19:23.845Z,101065.00
2022-10-04T03:22:03.789Z,101055.00
2022-10-04T03:24:47.028Z,101058.00
2022-10-04T03:27:27.231Z,100997.00
2022-10-04T03:30:02.133Z,101043.00
2022-10-04T03:32:38.725Z,101051.00
2022-10-04T03:35:29.531Z,101043.00
2022-10-04T03:38:10.016Z,101023.00
2022-10-04T03:40:53.698Z,101040.00
2022-10-04T03:43:31.740Z,101050.00
2022-10-04T03:46:07.393Z,101045.00
2022-10-04T03:48:47.888Z,101041.00
2022-10-04T03:51:24.821Z,101039.00
2022-10-04T03:54:01.691Z,101023.00
2022-10-04T03:56:38.275Z,101033.00
2022-10-04T03:59:19.399Z,101027.00
2022-10-04T04:02:11.310Z,101020.00
2022-10-04T04:04:58.252Z,101028.00
2022-10-04T04:07:40.217Z,100997.00
2022-10-04T04:10:24.827Z,101004.00
2022-10-04T04:13:04.652Z,100984.00
2022-10-04T04:15:40.604Z,101018.00
2022-10-04T04:18:20.233Z,101008.00
2022-10-04T04:20:59.081Z,101008.00
2022-10-04T04:23:37.437Z,101002.00
2022-10-04T04:26:24.800Z,101004.00
2022-10-04T04:29:09.180Z,100991.00
2022-10-04T04:31:52.409Z,101012.00
2022-10-04T04:34:30.136Z,101017.00
2022-10-04T04:37:06.605Z,101021.00
2022-10-04T04:39:41.163Z,101022.00
2022-10-04T04:42:19.248Z,101024.00
2022-10-04T04:44:56.913Z,101001.00
2022-10-04T04:47:34.376Z,101001.00
2022-10-04T04:50:15.270Z,101014.00
2022-10-04T04:52:56.235Z,101002.00
2022-10-04T04:55:56.311Z,100973.00
2022-10-04T04:58:35.471Z,100986.00
2022-10-04T05:01:19.595Z,100965.00
2022-10-04T05:04:04.958Z,100960.00
2022-10-04T05:06:41.868Z,100985.00
2022-10-04T05:09:29.291Z,100990.00
2022-10-04T05:12:14.339Z,100976.00
2022-10-04T05:14:50.761Z,100969.00
2022-10-04T05:17:28.946Z,100975.00
2022-10-04T05:20:04.439Z,100976.00
2022-10-04T05:22:49.171Z,100977.00
2022-10-04T05:25:33.621Z,100971.00
2022-10-04T05:28:12.293Z,100970.00
2022-10-04T05:30:59.449Z,100978.00
2022-10-04T05:33:46.210Z,100977.00
2022-10-04T05:36:52.010Z,100985.00
2022-10-04T05:39:32.162Z,100969.00
2022-10-04T05:42:21.201Z,100983.00
2022-10-04T05:44:57.683Z,100989.00
2022-10-04T05:47:32.472Z,100967.00
2022-10-04T05:50:08.862Z,100970.00
2022-10-04T05:52:45.142Z,101001.00
2022-10-04T05:55:40.505Z,100987.00
2022-10-04T05:58:41.113Z,100977.00
2022-10-04T06:01:39.251Z,100986.00
2022-10-04T06:05:01.952Z,100987.00
2022-10-04T06:07:44.183Z,100991.00
2022-10-04T06:10:58.765Z,100985.00
2022-10-04T06:14:00.688Z,100985.00
2022-10-04T06:16:56.486Z,100915.00
2022-10-04T06:20:31.068Z,100985.00
2022-10-04T06:23:14.988Z,100982.00
2022-10-04T06:25:55.917Z,100984.00
2022-10-04T06:28:35.716Z,100961.00
2022-10-04T06:32:09.565Z,100985.00
2022-10-04T06:35:25.243Z,100985.00
2022-10-04T06:38:24.359Z,100974.00
2022-10-04T06:41:35.357Z,100962.00
2022-10-04T06:44:46.671Z,100987.00
2022-10-04T06:47:49.016Z,100982.00
2022-10-04T06:50:36.378Z,100997.00
2022-10-04T06:53:25.736Z,100996.00
2022-10-04T06:56:31.153Z,100978.00
2022-10-04T06:59:47.057Z,100979.00
2022-10-04T07:02:32.159Z,100974.00
2022-10-04T07:05:21.853Z,100992.00
2022-10-04T07:08:08.665Z,100987.00
2022-10-04T07:10:55.749Z,100989.00
2022-10-04T07:13:50.250Z,100967.00
2022-10-04T07:16:38.538Z,100988.00
2022-10-04T07:19:35.590Z,100985.00
2022-10-04T07:22:21.660Z,100992.00
2022-10-04T07:25:14.862Z,100998.00
2022-10-04T07:28:16.564Z,101014.00
2022-10-04T07:30:59.507Z,100994.00
2022-10-04T07:33:45.959Z,100995.00
2022-10-04T07:36:27.839Z,101008.00
2022-10-04T07:39:11.602Z,101005.00
2022-10-04T07:41:54.296Z,101015.00
2022-10-04T07:44:39.517Z,101010.00
2022-10-04T07:47:21.686Z,101013.00
2022-10-04T07:49:56.360Z,101021.00
2022-10-04T07:52:52.990Z,101013.00
2022-10-04T07:55:33.527Z,101019.00
2022-10-04T07:58:30.768Z,101026.00
2022-10-04T08:01:13.185Z,101016.00
2022-10-04T08:04:03.860Z,101016.00
2022-10-04T08:06:56.514Z,100998.00
2022-10-04T08:09:56.108Z,101010.00
2022-10-04T08:12:47.868Z,101007.00
2022-10-04T08:15:37.556Z,101004.00
2022-10-04T08:18:30.280Z,100987.00
2022-10-04T08:21:08.273Z,100990.00
2022-10-04T08:24:17.564Z,101008.00
2022-10-04T08:27:27.883Z,101006.00
2022-10-04T08:30:12.086Z,101015.00
2022-10-04T08:33:06.464Z,101013.00
2022-10-04T08:35:44.103Z,100999.00
2022-10-04T08:38:43.303Z,101011.00
2022-10-04T08:42:04.929Z,101007.00
2022-10-04T08:45:34.772Z,101013.00
2022-10-04T08:49:06.993Z,101012.00
2022-10-04T08:52:40.439Z,101014.00
2022-10-04T08:55:48.255Z,100993.00
2022-10-04T08:58:55.046Z,101001.00
2022-10-04T09:01:56.403Z,101008.00
2022-10-04T09:05:08.927Z,101012.00
2022-10-04T09:08:46.113Z,101014.00
2022-10-04T09:12:00.043Z,101010.00
2022-10-04T09:15:11.224Z,100988.00
2022-10-04T09:17:56.648Z,100999.00
2022-10-04T09:20:55.378Z,101003.00
2022-10-04T09:24:38.243Z,100987.00
2022-10-04T09:27:54.027Z,100991.00
2022-10-04T09:30:52.687Z,100970.00
2022-10-04T09:33:59.615Z,100962.00
2022-10-04T09:37:11.144Z,100979.00
2022-10-04T09:40:37.056Z,100986.00
2022-10-04T09:43:38.197Z,101008.00
2022-10-04T09:46:32.704Z,100980.00
2022-10-04T09:49:24.343Z,100959.00
2022-10-04T09:52:24.678Z,100960.00
2022-10-04T09:55:35.740Z,100966.00
2022-10-04T09:58:53.399Z,100987.00
2022-10-04T10:01:46.004Z,100963.00
2022-10-04T10:04:51.930Z,100976.00
2022-10-04T10:07:46.740Z,100974.00
2022-10-04T10:10:52.866Z,100950.00
2022-10-04T10:14:00.621Z,100970.00
2022-10-04T10:16:51.428Z,100978.00
2022-10-04T10:20:27.212Z,100965.00
2022-10-04T10:23:44.270Z,100958.00
2022-10-04T10:26:52.494Z,100966.00
2022-10-04T10:30:11.289Z,100958.00
2022-10-04T10:33:20.544Z,100958.00
2022-10-04T10:36:37.236Z,100963.00
2022-10-04T10:39:48.508Z,100967.00
2022-10-04T10:43:03.501Z,100957.00
2022-10-04T10:46:03.335Z,100956.00
2022-10-04T10:49:02.467Z,100887.00
2022-10-04T10:52:29.574Z,100954.00
2022-10-04T10:55:36.039Z,100951.00
2022-10-04T10:59:02.014Z,100962.00
2022-10-04T11:02:15.376Z,100958.00
2022-10-04T11:05:04.703Z,100941.00
2022-10-04T11:07:55.242Z,100958.00
2022-10-04T11:11:23.005Z,100949.00
2022-10-04T11:14:32.656Z,100930.00
2022-10-04T11:17:57.293Z,100941.00
2022-10-04T11:21:14.006Z,100932.00
2022-10-04T11:24:34.701Z,100941.00
2022-10-04T11:27:48.747Z,100948.00
2022-10-04T11:30:29.875Z,100932.00
2022-10-04T11:33:59.494Z,100924.00
2022-10-04T11:36:54.020Z,100932.00
2022-10-04T11:40:10.689Z,100928.00
2022-10-04T11:43:11.373Z,100922.00
2022-10-04T11:46:17.616Z,100929.00
2022-10-04T11:49:14.344Z,100925.00
2022-10-04T11:52:42.004Z,100911.00
2022-10-04T11:55:54.153Z,100916.00
2022-10-04T11:58:42.049Z,100905.00
2022-10-04T12:01:50.746Z,100876.00
2022-10-04T12:05:13.711Z,100906.00
2022-10-04T12:07:58.988Z,100889.00
2022-10-04T12:11:12.177Z,100918.00
2022-10-04T12:14:11.337Z,100897.00
2022-10-04T12:17:18.643Z,100912.00
2022-10-04T12:20:56.935Z,100912.00
2022-10-04T12:24:03.432Z,100903.00
2022-10-04T12:27:26.008Z,100895.00
2022-10-04T12:30:23.936Z,100891.00
2022-10-04T12:33:14.845Z,100887.00
2022-10-04T12:36:04.002Z,100889.00
2022-10-04T12:39:09.579Z,100880.00
2022-10-04T12:42:00.228Z,100868.00
2022-10-04T12:45:05.693Z,100866.00
2022-10-04T12:47:58.835Z,100868.00
2022-10-04T12:50:54.718Z,100863.00
2022-10-04T12:53:50.316Z,100850.00
2022-10-04T12:56:47.692Z,100860.00
2022-10-04T12:59:55.024Z,100838.00
2022-10-04T13:02:59.849Z,100844.00
2022-10-04T13:05:50.391Z,100839.00
2022-10-04T13:08:57.621Z,100816.00
2022-10-04T13:11:59.251Z,100832.00
2022-10-04T13:15:06.295Z,100853.00
2022-10-04T13:17:59.079Z,100851.00
2022-10-04T13:20:55.956Z,100838.00
2022-10-04T13:23:55.514Z,100847.00
2022-10-04T13:26:48.940Z,100836.00
2022-10-04T13:29:32.724Z,100829.00
2022-10-04T13:32:17.560Z,100826.00
2022-10-04T13:35:04.903Z,100809.00
2022-10-04T13:37:55.836Z,100821.00
2022-10-04T13:40:55.979Z,100814.00
2022-10-04T13:44:11.920Z,100817.00
2022-10-04T13:47:07.811Z,100814.00
2022-10-04T13:50:05.654Z,100809.00
2022-10-04T13:53:13.415Z,100816.00
2022-10-04T13:56:18.600Z,100810.00
2022-10-04T13:59:04.621Z,100784.00
2022-10-04T14:02:41.091Z,100807.00
2022-10-04T14:06:07.270Z,100800.00
2022-10-04T14:09:18.419Z,100791.00
2022-10-04T14:12:54.779Z,100797.00
2022-10-04T14:16:34.576Z,100783.00
2022-10-04T14:19:49.490Z,100797.00
2022-10-04T14:23:20.374Z,100804.00
2022-10-04T14:26:51.004Z,100802.00
2022-10-04T14:30:12.510Z,100798.00
2022-10-04T14:33:17.498Z,100803.00
2022-10-04T14:36:11.196Z,100803.00
2022-10-04T14:39:18.322Z,100770.00
2022-10-04T14:42:46.505Z,100786.00
2022-10-04T14:45:37.878Z,100780.00
2022-10-04T14:48:54.777Z,100772.00
2022-10-04T14:51:50.089Z,100768.00
2022-10-04T14:54:50.075Z,100747.00
2022-10-04T14:57:52.806Z,100765.00
2022-10-04T15:00:35.191Z,100762.00
2022-10-04T15:03:32.995Z,100767.00
2022-10-04T15:06:42.761Z,100774.00
2022-10-04T15:09:53.807Z,100782.00
2022-10-04T15:13:11.031Z,100766.00
2022-10-04T15:16:10.110Z,100783.00
2022-10-04T15:18:55.995Z,100772.00
2022-10-04T15:21:53.842Z,100767.00
2022-10-04T15:24:44.547Z,100767.00
2022-10-04T15:27:58.580Z,100769.00
2022-10-04T15:30:51.260Z,100776.00
2022-10-04T15:33:40.091Z,100780.00
2022-10-04T15:36:50.751Z,100779.00
2022-10-04T15:40:15.498Z,100764.00
2022-10-04T15:43:43.804Z,100776.00
2022-10-04T15:46:39.728Z,100764.00
2022-10-04T15:49:52.649Z,100780.00
2022-10-04T15:53:23.429Z,100778.00
2022-10-04T15:56:14.743Z,100758.00
2022-10-04T15:59:36.436Z,100778.00
2022-10-04T16:02:59.594Z,100778.00
2022-10-04T16:05:40.126Z,100788.00
2022-10-04T16:08:43.190Z,100788.00
2022-10-04T16:11:40.100Z,100786.00
2022-10-04T16:14:52.499Z,100794.00
2022-10-04T16:17:58.805Z,100779.00
2022-10-04T16:20:56.295Z,100774.00
2022-10-04T16:23:36.420Z,100765.00
2022-10-04T16:26:15.424Z,100778.00
2022-10-04T16:29:22.196Z,100776.00
2022-10-04T16:32:04.199Z,100778.00
2022-10-04T16:34:52.660Z,100714.00
2022-10-04T16:37:43.163Z,100761.00
2022-10-04T16:40:36.507Z,100770.00
2022-10-04T16:43:24.807Z,100757.00
2022-10-04T16:46:24.125Z,100763.00
2022-10-04T16:49:04.193Z,100758.00
2022-10-04T16:52:10.354Z,100758.00
2022-10-04T16:55:11.377Z,100761.00
2022-10-04T16:57:45.975Z,100753.00
2022-10-04T17:00:38.173Z,100759.00
2022-10-04T17:03:25.259Z,100760.00
2022-10-04T17:06:15.302Z,100754.00
2022-10-04T17:09:03.820Z,100759.00
2022-10-04T17:11:59.449Z,100757.00
2022-10-04T17:15:27.913Z,100744.00
2022-10-04T17:18:14.425Z,100716.00
2022-10-04T17:21:00.396Z,100755.00
2022-10-04T17:24:10.882Z,100747.00
2022-10-04T17:27:05.962Z,100754.00
2022-10-04T17:30:00.125Z,100754.00
2022-10-04T17:32:52.164Z,100757.00
2022-10-04T17:36:00.203Z,100759.00
2022-10-04T17:38:47.624Z,100770.00
2022-10-04T17:41:36.643Z,100773.00
2022-10-04T17:44:45.396Z,100762.00
2022-10-04T17:47:27.146Z,100764.00
2022-10-04T17:50:32.231Z,100764.00
2022-10-04T17:53:33.556Z,100753.00
2022-10-04T17:56:13.363Z,100760.00
2022-10-04T17:58:54.913Z,100761.00
2022-10-04T18:01:35.294Z,100759.00
2022-10-04T18:04:18.337Z,100754.00
2022-10-04T18:06:58.157Z,100759.00
2022-10-04T18:09:41.796Z,100761.00
2022-10-04T18:12:29.307Z,100765.00
2022-10-04T18:15:11.905Z,100774.00
2022-10-04T18:17:50.145Z,100772.00
2022-10-04T18:20:32.530Z,100784.00
2022-10-04T18:23:20.104Z,100784.00
2022-10-04T18:26:00.639Z,100788.00
2022-10-04T18:28:35.582Z,100783.00
2022-10-04T18:31:30.591Z,100788.00
2022-10-04T18:34:28.097Z,100771.00
2022-10-04T18:37:21.231Z,100730.00
2022-10-04T18:39:55.940Z,100771.00
2022-10-04T18:42:37.089Z,100775.00
2022-10-04T18:45:22.596Z,100780.00
